This is the latest recevied weather packets stored in our database for station/object Waldburg. If no packets are shown the sender has not sent any weather packets the latest 10 day(s).
| Time | Temp. | Humidity | Pressure | Rain* | Wind** | Luminosity | Snow |
|---|---|---|---|---|---|---|---|
| 1788584532 | 19.44° C | 75% | 1017.8 hPa | 0 mm | - | - | - |
| 1788582730 | 19.44° C | 74% | 1017.6 hPa | 0 mm | - | - | - |
| 1788580929 | 19.44° C | 72% | 1017 hPa | 0 mm | - | - | - |
| 1788579130 | 19.44° C | 71% | 1016.8 hPa | 0 mm | - | - | - |
| 1788577329 | 20° C | 70% | 1016.3 hPa | 0 mm | - | - | - |
| 1788575529 | 20° C | 70% | 1015.6 hPa | 0 mm | - | - | - |
| 1788573729 | 20.56° C | 69% | 1015.5 hPa | 0 mm | - | - | - |
| 1788571929 | 21.11° C | 66% | 1015.2 hPa | 0 mm | - | - | - |
| 1788570129 | 21.11° C | 67% | 1015.4 hPa | 0 mm | - | - | - |
| 1788568332 | 21.67° C | 66% | 1015.2 hPa | 0 mm | - | - | - |
| 1788566531 | 21.67° C | 65% | 1015.1 hPa | 0 mm | - | - | - |
| 1788564731 | 21.67° C | 65% | 1015.2 hPa | 0 mm | - | - | - |
| 1788562931 | 21.67° C | 66% | 1015.2 hPa | 0 mm | - | - | - |
| 1788561131 | 21.67° C | 66% | 1015.3 hPa | 0 mm | - | - | - |
| 1788557531 | 22.22° C | 67% | 1015.2 hPa | 0 mm | - | - | - |
| 1788555731 | 22.22° C | 64% | 1015 hPa | 0 mm | - | - | - |
| 1788553931 | 22.78° C | 60% | 1015 hPa | 0 mm | - | - | - |
| 1788552130 | 23.33° C | 57% | 1014.9 hPa | 0 mm | - | - | - |
| 1788550330 | 23.89° C | 55% | 1014.6 hPa | 0 mm | - | - | - |
| 1788548531 | 24.44° C | 54% | 1014.3 hPa | 0 mm | - | - | - |
| 1788546731 | 23.89° C | 55% | 1014.1 hPa | 0 mm | - | - | - |
| 1788544931 | 24.44° C | 53% | 1013.7 hPa | 0 mm | - | - | - |
| 1788543130 | 25° C | 53% | 1013.5 hPa | 0 mm | - | - | - |
| 1788541344 | 26.11° C | 50% | 1013.5 hPa | 0 mm | - | - | - |
| 1788539531 | 26.67° C | 48% | 1013.7 hPa | 0 mm | - | - | - |
* Rain since midnight (hover to see other rain measurements)
** Current wind speed in m/s (hover to see current wind gust speed)